Time;durP1;ratioP1;P1;durP2;ratioP2;P2;SDS_P1;SDS_P2;PMS_P1;PMS_P2;Temp;Humidity;BMP_temperature;BMP_pressure;BME280_temperature;BME280_humidity;BME280_pressure;Samples;Min_cycle;Max_cycle;Signal;HPM_P1;HPM_P2
2023/01/22 00:02:25;;;;;;;;;;;;;;;15.76;47.95;101181.25;4957384;29;1284;-47
2023/01/22 00:04:50;;;;;;;;;;;;;;;15.79;48.84;101183.47;4957906;28;1205;-49
2023/01/22 00:07:16;;;;;;;;;;;;;;;15.63;47.96;101180.56;4956867;29;1902;-47
2023/01/22 00:09:41;;;;;;;;;;;;;;;15.54;48.14;101182.09;4957231;29;1245;-46
2023/01/22 00:12:07;;;;;;;;;;;;;;;16.27;48.44;101180.94;4957429;28;1214;-45
2023/01/22 00:14:32;;;;;;;;;;;;;;;15.73;48.69;101180.66;4956813;29;1483;-48
2023/01/22 00:16:58;;;;;;;;;;;;;;;16.82;48.38;101187.13;4957393;28;1029;-46
2023/01/22 00:19:23;;;;;;;;;;;;;;;16.10;49.68;101192.03;4960737;29;1269;-46
2023/01/22 00:21:49;;;;;;;;;;;;;;;15.73;48.94;101175.19;4961066;29;1289;-48
2023/01/22 00:24:14;;;;;;;;;;;;;;;15.63;48.09;101171.53;4960536;28;1222;-47
2023/01/22 00:26:40;;;;;;;;;;;;;;;15.57;47.50;101179.69;4961082;29;2646;-45
2023/01/22 00:29:05;;;;;;;;;;;;;;;15.51;47.20;101183.44;4962764;28;1981;-47
2023/01/22 00:31:31;;;;;;;;;;;;;;;15.32;46.95;101180.22;4961563;29;1300;-47
2023/01/22 00:33:56;;;;;;;;;;;;;;;16.57;47.83;101181.16;4961025;29;1205;-45
2023/01/22 00:36:22;;;;;;;;;;;;;;;15.76;48.91;101181.25;4960750;29;1328;-48
2023/01/22 00:38:47;;;;;;;;;;;;;;;15.46;48.71;101183.41;4943901;29;1214;-48
2023/01/22 00:41:13;;;;;;;;;;;;;;;15.51;47.60;101188.09;4944321;29;1003;-48
2023/01/22 00:43:39;;;;;;;;;;;;;;;16.42;47.88;101189.28;4960708;29;1304;-49
2023/01/22 00:46:05;;;;;;;;;;;;;;;15.68;48.70;101204.47;4943690;29;1288;-46
2023/01/22 00:48:30;;;;;;;;;;;;;;;15.54;48.10;101201.28;4960327;29;1986;-46
2023/01/22 00:50:56;;;;;;;;;;;;;;;15.81;48.28;101203.25;4943680;28;1155;-44
2023/01/22 00:53:21;;;;;;;;;;;;;;;16.03;48.46;101204.06;4970950;28;867;-45
2023/01/22 00:55:51;;;;;;;;;;;;;;;15.55;48.52;101201.03;4960927;28;1868;-46
2023/01/22 00:58:16;;;;;;;;;;;;;;;15.36;47.84;101200.53;4960863;28;1098;-46
2023/01/22 01:00:43;;;;;;;;;;;;;;;16.04;47.89;101196.66;4960301;28;1030;-46
2023/01/22 01:05:53;;;;;;;;;;;;;;;15.47;48.14;101211.63;4974849;28;1053;-47
2023/01/22 01:08:19;;;;;;;;;;;;;;;16.46;47.62;101208.81;4927880;29;1915;-46
2023/01/22 01:10:44;;;;;;;;;;;;;;;15.65;48.45;101210.47;4960772;28;1153;-46
2023/01/22 01:13:10;;;;;;;;;;;;;;;15.45;48.03;101211.06;4943503;29;1411;-45
2023/01/22 01:15:36;;;;;;;;;;;;;;;15.37;47.25;101204.91;4946227;28;1164;-48
2023/01/22 01:18:01;;;;;;;;;;;;;;;15.26;47.12;101210.53;4968611;28;1124;-46
2023/01/22 01:20:27;;;;;;;;;;;;;;;16.31;47.43;101213.06;4960692;28;1077;-47
2023/01/22 01:22:52;;;;;;;;;;;;;;;15.66;48.45;101212.13;4942587;28;1137;-49
2023/01/22 01:25:17;;;;;;;;;;;;;;;16.65;48.03;101207.31;4960297;28;2373;-46
2023/01/22 01:27:43;;;;;;;;;;;;;;;16.69;48.75;101213.09;4961858;28;1910;-47
2023/01/22 01:30:09;;;;;;;;;;;;;;;15.96;49.63;101216.31;4958378;28;1102;-48
2023/01/22 01:32:34;;;;;;;;;;;;;;;15.76;48.55;101220.47;4959974;28;1086;-48
2023/01/22 01:34:59;;;;;;;;;;;;;;;15.61;48.04;101220.28;4942845;29;1066;-46
2023/01/22 01:37:25;;;;;;;;;;;;;;;15.47;47.73;101219.84;4959925;28;1006;-49
2023/01/22 01:39:53;;;;;;;;;;;;;;;16.28;48.27;101224.56;4946232;28;1570;-47
2023/01/22 01:42:27;;;;;;;;;;;;;;;15.88;49.07;101217.63;4964918;28;1596;-50
2023/01/22 01:45:13;;;;;;;;;;;;;;;15.55;48.42;101222.13;4942595;29;1153;-44
2023/01/22 01:47:38;;;;;;;;;;;;;;;15.36;47.89;101225.19;4959685;28;1962;-45
2023/01/22 01:50:04;;;;;;;;;;;;;;;16.03;48.65;101212.28;4942776;29;1066;-47
2023/01/22 01:52:30;;;;;;;;;;;;;;;15.63;48.31;101218.94;4976876;28;1191;-46
2023/01/22 01:54:55;;;;;;;;;;;;;;;16.25;48.32;101208.63;4959778;28;2470;-46
2023/01/22 01:57:22;;;;;;;;;;;;;;;15.76;49.01;101212.22;4958449;28;1109;-45
2023/01/22 01:59:47;;;;;;;;;;;;;;;15.61;48.27;101203.84;4942123;29;1042;-46
2023/01/22 02:02:12;;;;;;;;;;;;;;;16.36;48.68;101204.88;4959471;28;1136;-45
2023/01/22 02:04:38;;;;;;;;;;;;;;;15.80;49.14;101196.13;4968028;28;1130;-46
2023/01/22 02:07:03;;;;;;;;;;;;;;;15.60;48.39;101197.53;4960720;28;1911;-48
2023/01/22 02:09:31;;;;;;;;;;;;;;;15.70;48.31;101189.41;4941996;29;1647;-48
2023/01/22 02:11:56;;;;;;;;;;;;;;;16.02;48.87;101188.69;4942302;29;1319;-46
2023/01/22 02:14:23;;;;;;;;;;;;;;;15.67;48.51;101187.19;4926551;29;1231;-43
2023/01/22 02:16:58;;;;;;;;;;;;;;;15.43;48.16;101191.28;4946490;29;1467;-45
2023/01/22 02:19:23;;;;;;;;;;;;;;;15.44;47.36;101199.25;4959122;28;1220;-43
2023/01/22 02:21:49;;;;;;;;;;;;;;;16.29;47.85;101193.31;4942136;29;1157;-46
2023/01/22 02:24:15;;;;;;;;;;;;;;;15.67;48.43;101191.81;4959073;28;1105;-47
2023/01/22 02:26:41;;;;;;;;;;;;;;;15.50;47.88;101187.28;4959442;28;1928;-47
2023/01/22 02:29:07;;;;;;;;;;;;;;;16.46;47.68;101187.66;4952314;28;1976;-46
2023/01/22 02:31:34;;;;;;;;;;;;;;;15.81;48.74;101193.13;4959238;28;1014;-47
2023/01/22 02:34:00;;;;;;;;;;;;;;;15.48;48.06;101189.44;4941998;29;1259;-49
2023/01/22 02:36:28;;;;;;;;;;;;;;;15.59;47.81;101195.88;4941880;29;1283;-49
2023/01/22 02:38:54;;;;;;;;;;;;;;;16.11;48.57;101190.94;4941985;29;1418;-49
2023/01/22 02:41:19;;;;;;;;;;;;;;;15.67;48.28;101200.91;4946317;29;1185;-48
2023/01/22 02:43:44;;;;;;;;;;;;;;;15.46;47.94;101191.63;4941395;29;1085;-46
2023/01/22 02:46:10;;;;;;;;;;;;;;;16.31;48.15;101202.09;4941633;29;1081;-47
2023/01/22 02:48:35;;;;;;;;;;;;;;;15.70;48.28;101207.78;4941711;29;1976;-48
2023/01/22 02:51:01;;;;;;;;;;;;;;;16.05;48.49;101212.84;4958621;28;1133;-47
2023/01/22 02:53:26;;;;;;;;;;;;;;;15.95;49.06;101215.50;4953338;28;1145;-46
2023/01/22 02:55:52;;;;;;;;;;;;;;;15.67;48.42;101214.59;4941634;29;2369;-45
2023/01/22 02:58:17;;;;;;;;;;;;;;;15.48;47.79;101205.88;4941201;29;1543;-46
2023/01/22 03:00:43;;;;;;;;;;;;;;;16.19;47.78;101206.94;4941529;29;1145;-47
2023/01/22 03:03:14;;;;;;;;;;;;;;;15.91;48.59;101214.34;4941285;29;1231;-44
2023/01/22 03:05:48;;;;;;;;;;;;;;;15.64;48.29;101204.16;4946765;29;848;-45
2023/01/22 03:08:13;;;;;;;;;;;;;;;15.44;47.63;101209.41;4941245;28;1910;-45
2023/01/22 03:10:39;;;;;;;;;;;;;;;16.08;47.81;101215.06;4941271;29;1572;-45
2023/01/22 03:21:19;;;;;;;;;;;;;;;15.66;48.40;101229.41;4973441;28;1196;-45
2023/01/22 03:23:45;;;;;;;;;;;;;;;15.48;47.85;101227.81;4957935;28;1077;-47
2023/01/22 03:26:11;;;;;;;;;;;;;;;16.25;47.89;101219.59;4970345;28;2404;-47
2023/01/22 03:28:36;;;;;;;;;;;;;;;15.65;48.35;101221.44;4943674;28;1911;-45
2023/01/22 03:31:02;;;;;;;;;;;;;;;15.39;47.82;101221.94;4944982;28;1148;-44
2023/01/22 03:33:29;;;;;;;;;;;;;;;15.34;47.30;101221.88;4940977;29;1180;-46
2023/01/22 03:35:59;;;;;;;;;;;;;;;16.37;47.68;101220.28;4958248;28;1082;-44
2023/01/22 03:38:25;;;;;;;;;;;;;;;15.70;48.63;101214.09;4958139;28;1165;-43
2023/01/22 03:40:52;;;;;;;;;;;;;;;15.44;47.87;101214.88;4941140;29;1695;-46
2023/01/22 03:43:19;;;;;;;;;;;;;;;15.38;47.33;101205.75;4940755;29;1302;-46
2023/01/22 03:45:45;;;;;;;;;;;;;;;16.60;47.47;101210.84;4940420;29;1343;-42
2023/01/22 03:48:13;;;;;;;;;;;;;;;15.74;48.60;101212.50;4940565;29;1973;-44
2023/01/22 03:50:39;;;;;;;;;;;;;;;16.14;48.62;101206.88;4940752;29;1356;-46
2023/01/22 03:53:05;;;;;;;;;;;;;;;16.29;48.84;101204.28;4962403;28;1057;-43
2023/01/22 03:55:32;;;;;;;;;;;;;;;15.78;48.70;101209.22;4942954;29;1881;-42
2023/01/22 03:57:57;;;;;;;;;;;;;;;15.63;48.22;101216.19;4940466;29;1291;-46
2023/01/22 04:00:23;;;;;;;;;;;;;;;15.46;47.66;101219.03;4940563;29;1180;-43
2023/01/22 04:02:49;;;;;;;;;;;;;;;15.44;47.32;101225.84;4957870;28;1093;-47
2023/01/22 04:05:22;;;;;;;;;;;;;;;16.03;48.61;101217.78;4942303;29;1617;-46
2023/01/22 04:07:48;;;;;;;;;;;;;;;15.63;48.44;101218.94;4940178;29;1970;-46
2023/01/22 04:10:16;;;;;;;;;;;;;;;15.50;47.79;101231.13;4940372;29;1511;-47
2023/01/22 04:12:41;;;;;;;;;;;;;;;16.13;48.10;101228.03;4940425;29;1315;-45
2023/01/22 04:15:09;;;;;;;;;;;;;;;15.82;48.96;101232.34;4940121;29;1367;-46
2023/01/22 04:17:35;;;;;;;;;;;;;;;15.49;48.66;101228.66;4947115;28;1367;-47
2023/01/22 04:20:21;;;;;;;;;;;;;;;15.59;47.96;101230.69;4946304;28;960;-48
2023/01/22 04:22:56;;;;;;;;;;;;;;;15.84;48.67;101238.41;4939749;28;998;-46
2023/01/22 04:25:22;;;;;;;;;;;;;;;15.58;48.13;101232.59;4948260;28;2411;-46
2023/01/22 04:27:48;;;;;;;;;;;;;;;15.48;47.69;101232.47;4944557;28;1906;-46
2023/01/22 04:30:16;;;;;;;;;;;;;;;15.31;47.17;101236.09;4943629;29;1398;-48
2023/01/22 04:32:44;;;;;;;;;;;;;;;15.23;46.74;101242.84;4940083;28;1091;-44
2023/01/22 04:35:32;;;;;;;;;;;;;;;15.97;47.19;101251.72;4956302;28;1410;-48
2023/01/22 04:37:58;;;;;;;;;;;;;;;15.70;48.27;101257.13;4923373;29;1152;-42
2023/01/22 04:40:24;;;;;;;;;;;;;;;15.36;48.05;101252.59;4939835;29;1206;-46
2023/01/22 04:42:49;;;;;;;;;;;;;;;15.41;47.53;101254.56;4948735;29;1109;-47
2023/01/22 04:45:15;;;;;;;;;;;;;;;16.07;48.21;101257.31;4971896;28;1183;-49
2023/01/22 04:47:41;;;;;;;;;;;;;;;15.48;48.50;101254.41;4939537;29;1997;-48
2023/01/22 04:50:06;;;;;;;;;;;;;;;15.66;48.30;101250.50;4940016;29;1293;-47
2023/01/22 04:52:32;;;;;;;;;;;;;;;15.89;48.47;101252.16;4927739;28;1157;-47
2023/01/22 04:54:57;;;;;;;;;;;;;;;15.53;48.29;101262.69;4954225;28;2043;-49
2023/01/22 04:57:29;;;;;;;;;;;;;;;15.26;47.62;101268.88;4958649;28;1438;-48
2023/01/22 04:59:54;;;;;;;;;;;;;;;15.93;48.27;101277.16;4958296;28;1207;-50
2023/01/22 05:02:20;;;;;;;;;;;;;;;15.49;48.32;101275.25;4958340;28;1272;-48
2023/01/22 05:04:46;;;;;;;;;;;;;;;17.17;47.38;101279.13;4950920;28;1220;-48
2023/01/22 05:07:12;;;;;;;;;;;;;;;16.21;49.34;101273.34;4976935;28;1989;-50
2023/01/22 05:09:37;;;;;;;;;;;;;;;15.73;48.75;101284.84;4962796;28;1243;-50
2023/01/22 05:12:03;;;;;;;;;;;;;;;15.47;48.51;101277.41;4950087;28;1156;-48
2023/01/22 05:14:34;;;;;;;;;;;;;;;15.50;47.13;101285.09;4995021;28;1089;-48
2023/01/22 05:17:00;;;;;;;;;;;;;;;16.38;48.15;101282.31;4975154;28;1037;-50
2023/01/22 05:19:26;;;;;;;;;;;;;;;15.68;48.76;101279.31;4953808;28;1290;-46
2023/01/22 05:21:51;;;;;;;;;;;;;;;15.46;48.23;101278.47;4994843;28;1105;-45
2023/01/22 05:24:17;;;;;;;;;;;;;;;15.36;47.26;101279.16;4981907;28;1145;-48
2023/01/22 05:26:43;;;;;;;;;;;;;;;16.35;48.03;101284.75;4949207;28;1805;-47
2023/01/22 05:29:12;;;;;;;;;;;;;;;15.73;48.26;101293.09;4962097;28;1906;-48
2023/01/22 05:31:38;;;;;;;;;;;;;;;15.50;47.76;101296.06;4979521;28;1294;-46
2023/01/22 05:34:08;;;;;;;;;;;;;;;15.35;47.36;101297.53;4949205;28;1165;-50
2023/01/22 05:36:34;;;;;;;;;;;;;;;16.55;47.81;101304.16;4987855;28;1239;-48
2023/01/22 05:39:05;;;;;;;;;;;;;;;15.93;48.70;101310.91;4957174;28;1121;-48
2023/01/22 05:41:31;;;;;;;;;;;;;;;15.56;48.27;101322.47;4993606;28;1349;-46
2023/01/22 05:43:57;;;;;;;;;;;;;;;15.43;47.75;101322.81;4981257;28;1176;-50
2023/01/22 05:46:26;;;;;;;;;;;;;;;15.32;47.13;101325.44;4986125;28;1408;-48
2023/01/22 05:48:52;;;;;;;;;;;;;;;16.13;47.96;101320.44;4974452;28;1915;-46
2023/01/22 05:51:23;;;;;;;;;;;;;;;15.47;48.27;101324.81;4994212;28;1192;-47
2023/01/22 05:53:49;;;;;;;;;;;;;;;15.34;47.49;101330.66;4976525;28;1045;-46
2023/01/22 05:56:14;;;;;;;;;;;;;;;15.97;47.99;101331.25;4948876;29;2265;-48
2023/01/22 05:58:40;;;;;;;;;;;;;;;15.65;48.18;101326.41;4957889;28;1116;-48
2023/01/22 06:01:06;;;;;;;;;;;;;;;16.30;48.12;101332.19;4970422;28;1142;-46
2023/01/22 06:03:38;;;;;;;;;;;;;;;16.73;48.05;101330.41;4958162;28;1354;-49
2023/01/22 06:06:06;;;;;;;;;;;;;;;15.93;49.23;101345.75;4961417;28;1286;-49
2023/01/22 06:08:31;;;;;;;;;;;;;;;15.69;48.62;101348.69;4961552;28;1906;-48
2023/01/22 06:11:00;;;;;;;;;;;;;;;15.61;47.66;101351.88;4964351;28;1087;-52
2023/01/22 06:13:26;;;;;;;;;;;;;;;16.19;48.17;101357.84;4946832;28;1234;-50
2023/01/22 06:15:55;;;;;;;;;;;;;;;15.83;48.75;101363.72;4950541;28;1193;-51
2023/01/22 06:18:40;;;;;;;;;;;;;;;15.48;48.07;101372.25;4967191;28;1382;-48
2023/01/22 06:21:07;;;;;;;;;;;;;;;16.41;46.72;101377.88;4955062;28;1651;-47
2023/01/22 06:23:32;;;;;;;;;;;;;;;16.22;46.94;101373.81;4972535;28;1100;-48
2023/01/22 06:25:59;;;;;;;;;;;;;;;15.88;47.92;101380.25;4954903;28;2199;-50
2023/01/22 06:28:24;;;;;;;;;;;;;;;15.67;48.94;101381.00;4990032;28;1918;-48
2023/01/22 06:30:50;;;;;;;;;;;;;;;15.51;49.42;101374.47;4943407;29;1114;-48
2023/01/22 06:33:16;;;;;;;;;;;;;;;15.40;49.52;101379.81;4953370;28;1241;-46
2023/01/22 06:35:41;;;;;;;;;;;;;;;16.90;46.12;101382.50;4955761;28;1429;-49
2023/01/22 06:38:07;;;;;;;;;;;;;;;16.64;46.72;101386.88;4977582;28;1061;-45
2023/01/22 06:40:33;;;;;;;;;;;;;;;16.01;48.61;101390.00;4951714;28;1191;-44
2023/01/22 06:43:01;;;;;;;;;;;;;;;15.70;49.41;101378.59;4991941;28;1510;-52
2023/01/22 06:45:27;;;;;;;;;;;;;;;15.56;50.01;101385.53;4969274;28;1193;-46
2023/01/22 06:47:56;;;;;;;;;;;;;;;15.45;50.23;101378.22;4940169;29;1984;-49
2023/01/22 06:50:21;;;;;;;;;;;;;;;16.99;46.43;101371.84;4940954;29;1209;-47
2023/01/22 06:52:47;;;;;;;;;;;;;;;16.53;47.42;101371.38;4940530;29;1505;-44
2023/01/22 06:55:14;;;;;;;;;;;;;;;15.98;49.13;101363.09;4940553;29;1977;-47
2023/01/22 06:57:39;;;;;;;;;;;;;;;15.72;49.69;101365.47;4941366;29;1372;-49
2023/01/22 07:00:07;;;;;;;;;;;;;;;15.59;50.17;101376.78;4958831;28;1130;-45
2023/01/22 07:02:32;;;;;;;;;;;;;;;16.00;49.55;101376.53;4970783;28;1042;-45
2023/01/22 07:04:58;;;;;;;;;;;;;;;17.43;46.07;101388.13;4970252;28;1107;-48
2023/01/22 07:07:23;;;;;;;;;;;;;;;16.43;48.53;101392.16;4963258;28;1989;-44
2023/01/22 07:09:49;;;;;;;;;;;;;;;16.01;49.75;101390.00;4966812;28;1193;-44
2023/01/22 07:12:14;;;;;;;;;;;;;;;15.76;50.16;101397.88;4972885;28;1162;-44
2023/01/22 07:14:40;;;;;;;;;;;;;;;15.70;50.56;101388.75;4976907;28;1157;-44
2023/01/22 07:17:05;;;;;;;;;;;;;;;17.33;46.64;101382.53;4964766;28;1193;-45
2023/01/22 07:19:30;;;;;;;;;;;;;;;16.71;47.92;101387.50;4966126;28;1029;-44
2023/01/22 07:21:56;;;;;;;;;;;;;;;16.11;49.34;101372.03;4970414;28;1018;-51
2023/01/22 07:24:22;;;;;;;;;;;;;;;15.88;50.20;101373.94;4964589;28;1801;-46
2023/01/22 07:26:48;;;;;;;;;;;;;;;15.74;50.43;101404.44;4965012;28;1134;-44
2023/01/22 07:29:13;;;;;;;;;;;;;;;15.57;51.20;101428.28;4958956;28;1902;-46
2023/01/22 07:31:39;;;;;;;;;;;;;;;16.55;48.97;101424.09;4957415;28;1252;-46
2023/01/22 07:34:05;;;;;;;;;;;;;;;17.15;47.12;101422.25;4971222;28;1185;-44
2023/01/22 07:36:31;;;;;;;;;;;;;;;16.21;49.38;101422.34;4967755;28;1026;-47
2023/01/22 07:38:56;;;;;;;;;;;;;;;15.94;50.29;101424.19;4963638;28;998;-49
2023/01/22 07:41:21;;;;;;;;;;;;;;;15.72;51.01;101414.81;4977165;28;1026;-47
2023/01/22 07:43:48;;;;;;;;;;;;;;;16.25;49.76;101411.69;4963876;28;1193;-47
2023/01/22 07:46:13;;;;;;;;;;;;;;;17.47;47.06;101415.91;4965170;28;1160;-43
2023/01/22 07:48:39;;;;;;;;;;;;;;;16.58;49.54;101412.63;4977063;28;1968;-45
2023/01/22 07:51:04;;;;;;;;;;;;;;;16.19;50.79;101412.72;4966676;28;1094;-49
2023/01/22 07:53:30;;;;;;;;;;;;;;;15.96;51.33;101419.28;4975888;28;1116;-47
2023/01/22 07:55:56;;;;;;;;;;;;;;;15.78;51.85;101421.22;4972740;28;1746;-48
2023/01/22 07:58:21;;;;;;;;;;;;;;;15.62;52.17;101422.88;4976293;28;1049;-49
2023/01/22 08:00:46;;;;;;;;;;;;;;;15.52;52.26;101430.97;4969114;28;1114;-44
2023/01/22 08:03:14;;;;;;;;;;;;;;;16.62;49.88;101429.41;4975295;28;1018;-49
2023/01/22 08:05:40;;;;;;;;;;;;;;;17.26;47.89;101435.03;4963107;28;1189;-44
2023/01/22 08:08:08;;;;;;;;;;;;;;;16.32;50.25;101442.50;4957501;28;1911;-47
2023/01/22 08:10:33;;;;;;;;;;;;;;;15.99;51.26;101441.56;4986579;28;1141;-44
2023/01/22 08:12:59;;;;;;;;;;;;;;;15.78;51.92;101437.66;4963214;28;1181;-49
2023/01/22 08:15:24;;;;;;;;;;;;;;;15.79;51.85;101438.50;4966105;28;1163;-47
2023/01/22 08:17:50;;;;;;;;;;;;;;;17.35;47.93;101438.09;4957457;29;1342;-45
2023/01/22 08:20:15;;;;;;;;;;;;;;;16.69;49.51;101439.13;4965537;28;1150;-48
2023/01/22 08:22:41;;;;;;;;;;;;;;;16.15;50.95;101455.47;4967064;28;1201;-48
2023/01/22 08:25:06;;;;;;;;;;;;;;;15.95;51.65;101456.84;4967997;28;1785;-45
2023/01/22 08:27:33;;;;;;;;;;;;;;;15.76;51.92;101458.19;4970317;28;2013;-46
2023/01/22 08:29:59;;;;;;;;;;;;;;;15.64;52.33;101461.00;4976093;28;1026;-47
2023/01/22 08:32:24;;;;;;;;;;;;;;;16.96;49.34;101452.06;4976227;28;850;-44
2023/01/22 08:34:53;;;;;;;;;;;;;;;16.99;48.79;101465.25;4969899;28;1100;-45
2023/01/22 08:37:19;;;;;;;;;;;;;;;16.20;50.83;101463.75;4970458;28;1120;-51
2023/01/22 08:39:44;;;;;;;;;;;;;;;15.97;51.59;101462.09;4971640;28;1173;-47
2023/01/22 08:42:10;;;;;;;;;;;;;;;15.74;52.07;101469.41;4972791;28;1244;-48
2023/01/22 08:44:35;;;;;;;;;;;;;;;15.63;52.25;101464.84;4968127;28;876;-50
2023/01/22 08:47:00;;;;;;;;;;;;;;;16.20;51.27;101478.31;4973835;28;1018;-52
2023/01/22 08:49:26;;;;;;;;;;;;;;;17.51;47.69;101476.72;4978812;28;1911;-49
2023/01/22 08:51:52;;;;;;;;;;;;;;;16.55;50.19;101465.28;4973812;28;1011;-47
2023/01/22 08:54:17;;;;;;;;;;;;;;;16.08;51.42;101470.19;4966584;28;1267;-46
2023/01/22 08:56:42;;;;;;;;;;;;;;;15.84;51.92;101463.28;4963508;28;1786;-46
2023/01/22 08:59:08;;;;;;;;;;;;;;;15.69;52.18;101464.66;4968635;28;1046;-48
2023/01/22 09:01:33;;;;;;;;;;;;;;;15.55;52.49;101464.16;4974620;28;1200;-46
2023/01/22 09:03:59;;;;;;;;;;;;;;;16.99;49.20;101465.25;4960588;28;1185;-48
2023/01/22 09:06:25;;;;;;;;;;;;;;;16.90;49.17;101461.31;4960225;28;1099;-49
2023/01/22 09:08:51;;;;;;;;;;;;;;;16.17;51.33;101453.31;4972464;28;1989;-50
2023/01/22 09:11:16;;;;;;;;;;;;;;;15.97;51.62;101454.69;4960323;28;1123;-47
2023/01/22 09:13:42;;;;;;;;;;;;;;;15.74;52.24;101458.44;4973798;28;1096;-48
2023/01/22 09:16:09;;;;;;;;;;;;;;;15.65;52.60;101460.75;4959611;28;1127;-45
2023/01/22 09:18:35;;;;;;;;;;;;;;;15.51;52.84;101456.69;4959302;29;1225;-49
2023/01/22 09:21:01;;;;;;;;;;;;;;;16.87;49.88;101462.66;4959822;28;1213;-43
2023/01/22 09:23:26;;;;;;;;;;;;;;;16.84;49.53;101451.34;4965692;28;1166;-45
2023/01/22 09:25:52;;;;;;;;;;;;;;;16.13;51.37;101455.75;4967099;28;2041;-44
2023/01/22 09:28:17;;;;;;;;;;;;;;;15.89;52.04;101457.84;4959927;29;1903;-43
2023/01/22 09:30:43;;;;;;;;;;;;;;;15.74;52.73;101458.44;4959657;28;1190;-43
2023/01/22 09:33:08;;;;;;;;;;;;;;;15.58;53.08;101460.09;4960225;28;891;-45
2023/01/22 09:35:34;;;;;;;;;;;;;;;17.19;48.96;101455.56;4964314;28;1079;-44
2023/01/22 09:38:00;;;;;;;;;;;;;;;16.68;50.33;101447.63;4959400;29;1249;-48
2023/01/22 09:40:26;;;;;;;;;;;;;;;16.11;51.84;101451.59;4965037;28;1129;-51
2023/01/22 09:42:53;;;;;;;;;;;;;;;15.88;52.17;101446.06;4976761;28;1113;-45
2023/01/22 09:45:19;;;;;;;;;;;;;;;15.72;52.52;101457.84;4987504;28;1155;-45
2023/01/22 09:47:48;;;;;;;;;;;;;;;16.06;52.02;101453.16;4972392;28;1910;-50
2023/01/22 09:50:14;;;;;;;;;;;;;;;17.53;48.16;101452.53;4958791;28;1097;-48
2023/01/22 09:52:39;;;;;;;;;;;;;;;16.56;50.71;101447.75;4972248;28;1050;-46
2023/01/22 09:55:10;;;;;;;;;;;;;;;16.13;51.66;101446.66;4964870;28;1975;-49
2023/01/22 09:57:36;;;;;;;;;;;;;;;15.86;52.51;101448.22;4972625;28;877;-50
2023/01/22 10:00:02;;;;;;;;;;;;;;;15.73;52.75;101446.63;4968952;28;1082;-46
2023/01/22 10:02:42;;;;;;;;;;;;;;;15.60;53.02;101444.25;4954356;28;877;-49
2023/01/22 10:05:20;;;;;;;;;;;;;;;17.15;49.47;101446.16;4976638;28;935;-46
2023/01/22 10:07:47;;;;;;;;;;;;;;;16.87;49.88;101445.31;4978081;28;2005;-48
2023/01/22 10:10:18;;;;;;;;;;;;;;;16.28;51.68;101448.78;4980820;28;1137;-49
2023/01/22 10:12:43;;;;;;;;;;;;;;;15.96;52.50;101447.53;4969145;28;1122;-44
2023/01/22 10:15:12;;;;;;;;;;;;;;;15.81;52.60;101450.06;4956225;28;1027;-46
2023/01/22 10:17:37;;;;;;;;;;;;;;;15.74;53.21;101453.78;4985529;28;1045;-44
2023/01/22 10:20:03;;;;;;;;;;;;;;;17.33;49.29;101453.19;4972710;28;1070;-47
2023/01/22 10:22:28;;;;;;;;;;;;;;;16.73;50.55;101445.75;4984899;28;1133;-47
2023/01/22 10:24:54;;;;;;;;;;;;;;;16.18;51.92;101444.81;4972059;28;1955;-46
2023/01/22 10:27:41;;;;;;;;;;;;;;;15.95;52.54;101437.66;4970063;28;1065;-47
2023/01/22 10:30:20;;;;;;;;;;;;;;;15.71;53.12;101439.72;4954864;28;1031;-45
2023/01/22 10:32:56;;;;;;;;;;;;;;;15.59;53.22;101436.28;4977287;28;1033;-48
2023/01/22 10:35:21;;;;;;;;;;;;;;;16.97;50.17;101442.72;4967631;28;1173;-50
2023/01/22 10:37:50;;;;;;;;;;;;;;;17.01;49.92;101440.28;4971153;28;1061;-50
2023/01/22 10:40:37;;;;;;;;;;;;;;;16.26;51.87;101443.56;4970155;28;1118;-46
2023/01/22 10:43:05;;;;;;;;;;;;;;;15.89;52.83;101436.75;4954708;28;1262;-48
2023/01/22 10:45:31;;;;;;;;;;;;;;;15.76;53.06;101444.47;4977048;28;1468;-47
2023/01/22 10:48:10;;;;;;;;;;;;;;;15.61;53.55;101439.59;4992897;28;2041;-49
2023/01/22 10:50:36;;;;;;;;;;;;;;;15.63;53.33;101446.47;4976938;28;1100;-44
2023/01/22 10:53:01;;;;;;;;;;;;;;;17.22;49.56;101444.03;4968330;28;1123;-44
2023/01/22 10:55:29;;;;;;;;;;;;;;;16.57;51.20;101441.16;4982865;28;1935;-45
2023/01/22 10:57:55;;;;;;;;;;;;;;;16.06;52.44;101447.69;4983291;28;872;-49
2023/01/22 11:00:22;;;;;;;;;;;;;;;15.87;52.96;101447.13;4988697;28;1009;-46
2023/01/22 11:02:48;;;;;;;;;;;;;;;15.72;53.38;101445.00;4992188;28;1064;-48
2023/01/22 11:05:20;;;;;;;;;;;;;;;15.59;53.69;101447.25;4979189;28;1173;-51
2023/01/22 11:07:46;;;;;;;;;;;;;;;17.15;49.96;101444.25;4977466;28;1907;-48
2023/01/22 11:10:17;;;;;;;;;;;;;;;16.58;51.30;101440.91;4987843;28;1017;-44
2023/01/22 11:12:48;;;;;;;;;;;;;;;16.07;52.54;101443.00;4969356;28;1177;-45
2023/01/22 11:15:16;;;;;;;;;;;;;;;15.84;53.17;101433.13;4979260;28;1161;-45
2023/01/22 11:17:43;;;;;;;;;;;;;;;15.68;53.47;101446.56;4977461;28;994;-46
2023/01/22 11:20:35;;;;;;;;;;;;;;;15.61;53.84;101439.59;4976443;28;1037;-46
2023/01/22 11:23:00;;;;;;;;;;;;;;;17.41;49.38;101438.97;4946113;28;1211;-44
2023/01/22 11:25:26;;;;;;;;;;;;;;;16.58;51.35;101453.81;4966389;28;2235;-45
2023/01/22 11:28:07;;;;;;;;;;;;;;;16.05;52.49;101446.03;4946433;28;1910;-49
2023/01/22 11:30:38;;;;;;;;;;;;;;;15.86;53.27;101447.41;4991949;28;1052;-46
2023/01/22 11:33:07;;;;;;;;;;;;;;;15.67;53.49;101446.78;4991851;28;1041;-47
2023/01/22 11:35:44;;;;;;;;;;;;;;;15.56;53.79;101454.88;4976563;28;1457;-48
2023/01/22 11:38:16;;;;;;;;;;;;;;;16.05;52.94;101451.50;4969861;28;1101;-44
2023/01/22 11:40:44;;;;;;;;;;;;;;;17.51;49.26;101443.72;4956574;29;1134;-45
2023/01/22 11:43:29;;;;;;;;;;;;;;;16.50;51.54;101440.53;4956069;29;1193;-43
2023/01/22 11:45:54;;;;;;;;;;;;;;;15.98;52.98;101450.88;4955693;28;1206;-47
2023/01/22 11:48:19;;;;;;;;;;;;;;;15.82;53.46;101443.50;4957173;29;1910;-49
2023/01/22 11:50:47;;;;;;;;;;;;;;;15.70;53.62;101454.53;4957057;29;1209;-45
2023/01/22 11:53:20;;;;;;;;;;;;;;;15.54;53.70;101450.72;4956863;29;1249;-44
2023/01/22 11:55:45;;;;;;;;;;;;;;;16.87;50.84;101442.56;4939992;29;1858;-45
2023/01/22 11:58:20;;;;;;;;;;;;;;;16.90;50.56;101444.84;4956565;28;1190;-44
2023/01/22 12:01:08;;;;;;;;;;;;;;;16.15;52.64;101450.00;4958024;28;1280;-43
2023/01/22 12:03:39;;;;;;;;;;;;;;;15.89;53.13;101444.13;4971635;28;1225;-46
2023/01/22 12:06:20;;;;;;;;;;;;;;;15.67;53.45;101453.13;4966246;28;1173;-46
2023/01/22 12:08:51;;;;;;;;;;;;;;;15.67;53.92;101457.75;4956809;28;1914;-48
2023/01/22 12:11:20;;;;;;;;;;;;;;;17.27;49.71;101450.41;4956731;29;1312;-47
2023/01/22 12:13:45;;;;;;;;;;;;;;;16.96;50.53;101459.44;4955211;29;1186;-48
2023/01/22 12:16:17;;;;;;;;;;;;;;;16.31;52.10;101468.28;4956477;29;1146;-48
2023/01/22 12:18:56;;;;;;;;;;;;;;;16.03;52.85;101463.81;4937697;29;1254;-47
2023/01/22 12:21:29;;;;;;;;;;;;;;;15.74;53.40;101467.50;4938749;29;1265;-46
2023/01/22 12:24:11;;;;;;;;;;;;;;;16.29;52.44;101473.22;4939718;29;1234;-46
2023/01/22 12:26:42;;;;;;;;;;;;;;;17.39;49.55;101468.63;4958970;28;1890;-45
2023/01/22 12:29:27;;;;;;;;;;;;;;;16.44;51.74;101478.09;4939108;29;1918;-47
2023/01/22 12:31:55;;;;;;;;;;;;;;;16.05;52.92;101469.88;4957336;29;1186;-49
2023/01/22 12:34:53;;;;;;;;;;;;;;;15.82;53.38;101479.16;4952277;28;869;-49
2023/01/22 12:37:20;;;;;;;;;;;;;;;15.66;53.86;101476.13;4943006;29;1326;-45
2023/01/22 12:39:51;;;;;;;;;;;;;;;16.41;52.16;101484.06;4970825;28;1504;-48
2023/01/22 12:42:35;;;;;;;;;;;;;;;17.48;49.40;101482.75;4939372;29;1320;-45
2023/01/22 12:45:04;;;;;;;;;;;;;;;16.38;52.10;101484.56;4975518;28;1035;-45
2023/01/22 12:47:45;;;;;;;;;;;;;;;16.02;53.29;101490.41;4978940;28;1902;-45
2023/01/22 12:50:17;;;;;;;;;;;;;;;15.82;53.40;101492.84;4964833;28;999;-45
2023/01/22 12:52:42;;;;;;;;;;;;;;;15.70;53.87;101487.44;4962307;28;1136;-45
2023/01/22 12:55:42;;;;;;;;;;;;;;;17.10;50.72;101483.50;4961694;28;1978;-49
2023/01/22 12:58:23;;;;;;;;;;;;;;;16.64;51.52;101482.16;4927759;29;1405;-47
2023/01/22 13:01:07;;;;;;;;;;;;;;;16.08;53.06;101492.16;4975702;28;1110;-47
2023/01/22 13:03:34;;;;;;;;;;;;;;;15.87;53.47;101503.91;4964159;28;1017;-50